Time;durP1;ratioP1;P1;durP2;ratioP2;P2;SDS_P1;SDS_P2;PMS_P1;PMS_P2;Temp;Humidity;BMP_temperature;BMP_pressure;BME280_temperature;BME280_humidity;BME280_pressure;Samples;Min_cycle;Max_cycle;Signal;HPM_P1;HPM_P2
2022/04/22 00:02:36;;;;;;;10.85;9.75;;;;;;;7.95;100.00;97721.44;10382155;28;20492;-61
2022/04/22 00:07:40;;;;;;;11.50;10.32;;;;;;;7.99;100.00;97720.13;10389558;28;20052;-62
2022/04/22 00:12:44;;;;;;;10.57;9.57;;;;;;;7.98;100.00;97710.41;10389082;28;20046;-60
2022/04/22 00:17:48;;;;;;;11.38;9.88;;;;;;;8.01;100.00;97709.25;10387725;28;20136;-58
2022/04/22 00:22:52;;;;;;;12.45;11.23;;;;;;;8.02;100.00;97698.38;10390275;28;20050;-58
2022/04/22 00:27:55;;;;;;;13.20;12.00;;;;;;;8.01;100.00;97699.38;10388447;28;20084;-56
2022/04/22 00:32:58;;;;;;;12.32;11.13;;;;;;;8.01;100.00;97693.13;10393160;28;20048;-63
2022/04/22 00:38:03;;;;;;;14.25;12.75;;;;;;;8.02;100.00;97681.41;10387652;28;20050;-60
2022/04/22 00:43:14;;;;;;;13.60;12.30;;;;;;;7.99;100.00;97682.59;10388538;28;20041;-62
2022/04/22 00:48:43;;;;;;;15.38;13.77;;;;;;;8.02;100.00;97684.94;10388932;28;20104;-61
2022/04/22 00:53:49;;;;;;;14.73;13.35;;;;;;;7.99;100.00;97679.91;10386748;28;20492;-61
2022/04/22 00:58:53;;;;;;;15.20;13.70;;;;;;;7.99;100.00;97673.72;10387378;28;20140;-62
2022/04/22 01:14:41;;;;;;;13.90;12.60;;;;;;;7.93;100.00;97659.13;10387168;28;20399;-60
2022/04/22 01:19:44;;;;;;;14.68;13.27;;;;;;;7.93;100.00;97640.34;10391035;28;20056;-62
2022/04/22 01:24:56;;;;;;;15.55;13.43;;;;;;;7.88;100.00;97650.72;10410777;28;20037;-61
2022/04/22 01:30:02;;;;;;;15.20;13.68;;;;;;;7.87;100.00;97638.28;10404550;28;20073;-62
2022/04/22 01:35:06;;;;;;;14.68;13.25;;;;;;;7.85;100.00;97638.47;10408558;28;20056;-62
2022/04/22 01:40:12;;;;;;;15.88;14.30;;;;;;;7.86;100.00;97631.25;10405804;28;20152;-60
2022/04/22 01:45:15;;;;;;;16.55;14.85;;;;;;;7.80;100.00;97627.38;10385839;28;20761;-61
2022/04/22 01:50:18;;;;;;;15.15;13.65;;;;;;;7.74;100.00;97627.19;10386657;28;20124;-61
2022/04/22 01:55:23;;;;;;;14.93;13.52;;;;;;;7.74;100.00;97621.81;10389579;28;20064;-62
2022/04/22 02:00:26;;;;;;;14.18;12.77;;;;;;;7.73;100.00;97612.97;10386864;28;20084;-62
2022/04/22 02:05:32;;;;;;;14.23;12.93;;;;;;;7.73;100.00;97610.28;10386563;28;20095;-60
2022/04/22 02:10:36;;;;;;;13.98;12.68;;;;;;;7.69;100.00;97615.13;10385103;28;20045;-60
2022/04/22 02:15:39;;;;;;;13.65;12.35;;;;;;;7.66;100.00;97609.22;10387137;28;20387;-61
2022/04/22 02:20:44;;;;;;;14.60;13.20;;;;;;;7.61;100.00;97609.72;10397077;28;20041;-62
2022/04/22 02:25:49;;;;;;;15.25;13.75;;;;;;;7.58;100.00;97606.53;10419242;28;20017;-60
2022/04/22 02:30:52;;;;;;;15.60;14.10;;;;;;;7.54;100.00;97600.66;10412525;28;20046;-62
2022/04/22 02:35:56;;;;;;;15.50;14.00;;;;;;;7.50;100.00;97597.47;10400118;28;20048;-62
2022/04/22 02:46:21;;;;;;;15.70;14.10;;;;;;;7.47;100.00;97594.25;10390008;28;20141;-61
2022/04/22 02:51:24;;;;;;;16.45;14.85;;;;;;;7.47;100.00;97596.94;10378945;28;20046;-62
2022/04/22 02:56:30;;;;;;;16.00;14.50;;;;;;;7.46;100.00;97588.06;10377079;28;20552;-61
2022/04/22 03:01:34;;;;;;;14.75;13.35;;;;;;;7.46;100.00;97579.22;10371127;28;20421;-61
2022/04/22 03:06:38;;;;;;;15.00;13.48;;;;;;;7.50;100.00;97573.34;10376504;28;20045;-62
2022/04/22 03:11:43;;;;;;;15.07;13.68;;;;;;;7.51;100.00;97580.41;10374409;28;20046;-62
2022/04/22 03:16:46;;;;;;;14.40;13.00;;;;;;;7.49;100.00;97562.78;10379634;28;20064;-62
2022/04/22 03:21:50;;;;;;;14.23;12.82;;;;;;;7.51;100.00;97556.28;10376631;28;20536;-60
2022/04/22 03:26:54;;;;;;;14.60;13.23;;;;;;;7.54;100.00;97568.50;10375408;28;21251;-58
2022/04/22 03:31:57;;;;;;;14.02;12.70;;;;;;;7.57;100.00;97562.81;10382906;28;20046;-59
2022/04/22 03:37:03;;;;;;;14.15;12.75;;;;;;;7.58;100.00;97564.50;10381444;28;20041;-62
2022/04/22 03:42:08;;;;;;;13.07;11.85;;;;;;;7.61;100.00;97564.16;10382237;28;20053;-61
2022/04/22 03:47:11;;;;;;;12.65;11.45;;;;;;;7.59;100.00;97560.78;10376535;28;20053;-60
2022/04/22 03:52:15;;;;;;;13.05;11.85;;;;;;;7.52;100.00;97549.06;10364871;28;20072;-61
2022/04/22 04:02:42;;;;;;;13.63;12.32;;;;;;;7.36;100.00;97552.53;10381028;28;20053;-59
2022/04/22 04:07:58;;;;;;;13.25;12.05;;;;;;;7.27;100.00;97546.31;10367967;28;20056;-59
2022/04/22 04:18:26;;;;;;;15.57;14.00;;;;;;;7.18;100.00;97549.97;10353403;28;20069;-58
2022/04/22 04:23:29;;;;;;;15.57;14.02;;;;;;;7.18;100.00;97542.75;10366575;28;20119;-57
2022/04/22 04:28:35;;;;;;;15.98;14.48;;;;;;;7.17;100.00;97540.25;10360674;28;20049;-55
2022/04/22 04:33:39;;;;;;;15.70;14.20;;;;;;;7.18;100.00;97531.19;10366323;28;20049;-61
2022/04/22 04:38:43;;;;;;;16.85;15.15;;;;;;;7.16;100.00;97539.41;10367449;28;20541;-57
2022/04/22 04:43:47;;;;;;;17.75;15.93;;;;;;;7.18;100.00;97531.19;10370017;28;20921;-58
2022/04/22 04:48:51;;;;;;;16.50;14.80;;;;;;;7.21;100.00;97533.56;10379045;28;20498;-58
2022/04/22 04:53:55;;;;;;;17.63;15.85;;;;;;;7.20;100.00;97539.94;10375661;28;20050;-56
2022/04/22 04:58:59;;;;;;;18.27;16.38;;;;;;;7.18;100.00;97536.56;10380174;28;20052;-62
2022/04/22 05:04:02;;;;;;;18.58;16.30;;;;;;;7.22;100.00;97543.28;10377654;28;20038;-59
2022/04/22 05:09:06;;;;;;;18.83;16.92;;;;;;;7.28;100.00;97542.63;10379783;28;20644;-58
2022/04/22 05:14:11;;;;;;;17.42;15.80;;;;;;;7.37;100.00;97544.31;10378219;28;20084;-59
2022/04/22 05:19:14;;;;;;;18.73;15.95;;;;;;;7.40;100.00;97545.88;10378912;28;20479;-55
2022/04/22 05:24:17;;;;;;;17.58;15.77;;;;;;;7.40;100.00;97541.31;10361701;28;20083;-57
2022/04/22 05:34:42;;;;;;;19.20;17.25;;;;;;;7.51;100.00;97542.03;10377402;28;20056;-59
2022/04/22 05:39:47;;;;;;;18.92;17.02;;;;;;;7.57;100.00;97527.97;10377362;28;20073;-59
2022/04/22 05:44:52;;;;;;;18.60;16.70;;;;;;;7.59;100.00;97519.75;10379387;28;20053;-60
2022/04/22 05:49:55;;;;;;;20.38;18.23;;;;;;;7.64;100.00;97518.28;10377331;28;20048;-64
2022/04/22 05:55:02;;;;;;;21.05;18.85;;;;;;;7.74;100.00;97525.31;10373239;28;20046;-62
2022/04/22 06:00:08;;;;;;;19.75;17.85;;;;;;;7.80;100.00;97521.97;10377873;28;20498;-59
2022/04/22 06:05:17;;;;;;;18.40;16.50;;;;;;;7.84;100.00;97515.25;10364255;28;20123;-61
2022/04/22 06:10:32;;;;;;;18.38;16.42;;;;;;;7.95;100.00;97514.09;10366953;28;20053;-59
2022/04/22 06:15:37;;;;;;;17.20;15.48;;;;;;;7.91;100.00;97502.88;10362830;28;20871;-61
2022/04/22 06:20:41;;;;;;;17.95;16.15;;;;;;;7.98;100.00;97505.75;10365599;28;20053;-60
2022/04/22 06:25:46;;;;;;;16.63;14.98;;;;;;;8.05;100.00;97512.09;10364225;28;20053;-62
2022/04/22 06:30:51;;;;;;;17.95;16.08;;;;;;;8.05;100.00;97495.19;10363580;28;20041;-61
2022/04/22 06:35:57;;;;;;;16.95;15.27;;;;;;;8.23;100.00;97503.06;10374951;28;20044;-61
2022/04/22 06:46:24;;;;;;;15.05;13.55;;;;;;;8.54;100.00;97497.81;10373698;28;20077;-62
2022/04/22 06:51:28;;;;;;;14.35;12.90;;;;;;;8.71;100.00;97489.72;10375349;28;20100;-59
2022/04/22 06:56:32;;;;;;;13.60;12.13;;;;;;;8.89;100.00;97492.19;10373837;28;20107;-62
2022/04/22 07:01:38;;;;;;;13.90;12.55;;;;;;;8.89;100.00;97492.19;10374872;28;20056;-59
2022/04/22 07:06:47;;;;;;;12.65;11.45;;;;;;;8.87;100.00;97483.47;10374533;28;20053;-57
2022/04/22 07:11:52;;;;;;;12.50;11.40;;;;;;;9.02;100.00;97481.72;10382477;28;20053;-62
2022/04/22 07:16:57;;;;;;;12.90;11.70;;;;;;;9.00;100.00;97485.56;10402288;28;20048;-63
2022/04/22 07:22:00;;;;;;;13.25;12.05;;;;;;;8.90;100.00;97467.00;10380289;28;20049;-63
2022/04/22 07:27:05;;;;;;;14.25;12.85;;;;;;;8.97;100.00;97484.09;10382370;28;20045;-63
2022/04/22 07:32:13;;;;;;;12.93;11.63;;;;;;;9.04;100.00;97487.78;10384420;28;20158;-64
2022/04/22 07:37:18;;;;;;;14.00;11.73;;;;;;;9.06;100.00;97482.22;10381094;28;20052;-59
2022/04/22 07:42:22;;;;;;;13.35;11.98;;;;;;;9.12;100.00;97475.31;10382860;28;20052;-55
2022/04/22 07:47:27;;;;;;;13.00;11.80;;;;;;;9.23;100.00;97475.72;10381382;28;20518;-61
2022/04/22 07:52:30;;;;;;;13.55;12.10;;;;;;;9.46;100.00;97474.09;10369394;28;20056;-61
2022/04/22 07:57:33;;;;;;;13.52;12.23;;;;;;;9.61;100.00;97466.94;10381125;28;20129;-58
2022/04/22 08:02:40;;;;;;;12.27;11.07;;;;;;;9.71;100.00;97456.78;10381734;28;20067;-62
2022/04/22 08:07:43;;;;;;;10.48;9.48;;;;;;;9.87;100.00;97453.13;10380712;28;20085;-62
2022/04/22 08:12:47;;;;;;;10.10;9.10;;;;;;;9.94;100.00;97449.69;10382485;28;20132;-63
2022/04/22 08:17:51;;;;;;;10.45;9.38;;;;;;;9.98;100.00;97440.25;10383247;28;20127;-61
2022/04/22 08:22:54;;;;;;;9.02;8.23;;;;;;;10.00;100.00;97449.00;10380907;28;20152;-61
2022/04/22 08:27:57;;;;;;;9.80;8.88;;;;;;;10.12;100.00;97444.84;10380413;28;20682;-60
2022/04/22 08:33:02;;;;;;;8.60;7.80;;;;;;;10.28;100.00;97443.84;10383154;28;20047;-64
2022/04/22 08:38:06;;;;;;;11.07;9.38;;;;;;;10.48;100.00;97441.50;10376904;28;20050;-62
2022/04/22 08:43:13;;;;;;;10.15;9.15;;;;;;;10.64;100.00;97429.69;10381652;28;20723;-64
2022/04/22 08:53:46;;;;;;;9.98;8.18;;;;;;;10.92;100.00;97429.03;10376918;28;20050;-62
2022/04/22 08:58:52;;;;;;;7.63;6.93;;;;;;;11.06;100.00;97424.63;10372769;28;20048;-59
2022/04/22 09:03:56;;;;;;;8.00;7.30;;;;;;;11.21;100.00;97421.06;10376877;28;20057;-62
2022/04/22 09:09:05;;;;;;;8.85;7.50;;;;;;;11.36;100.00;97413.75;10379488;28;20041;-61
2022/04/22 09:14:08;;;;;;;8.23;7.50;;;;;;;11.60;100.00;97413.59;10375399;28;20763;-64
2022/04/22 09:19:18;;;;;;;8.50;7.70;;;;;;;11.75;100.00;97406.25;10379581;28;20041;-64
2022/04/22 09:24:21;;;;;;;8.98;8.18;;;;;;;11.90;100.00;97400.78;10377163;28;20798;-65
2022/04/22 09:29:24;;;;;;;8.15;7.35;;;;;;;12.05;100.00;97402.59;10377341;28;20623;-61
2022/04/22 09:34:41;;;;;;;6.80;6.20;;;;;;;12.20;100.00;97400.59;10376169;28;20046;-59
2022/04/22 09:45:09;;;;;;;6.85;6.20;;;;;;;12.35;100.00;97384.28;10374898;28;20191;-59
2022/04/22 09:50:46;;;;;;;6.53;5.93;;;;;;;12.45;100.00;97370.44;10379048;28;20046;-59
2022/04/22 09:55:54;;;;;;;5.40;4.90;;;;;;;12.60;100.00;97376.56;10375190;28;20112;-59
2022/04/22 10:01:01;;;;;;;7.00;6.38;;;;;;;12.72;100.00;97363.28;10380639;28;20301;-60
2022/04/22 10:06:06;;;;;;;7.63;5.78;;;;;;;12.89;100.00;97361.06;10376449;28;20041;-60
2022/04/22 10:11:13;;;;;;;7.40;5.90;;;;;;;13.07;100.00;97356.97;10378706;28;20527;-59
2022/04/22 10:16:16;;;;;;;6.85;6.03;;;;;;;13.00;100.00;97348.00;10381873;28;20134;-57
2022/04/22 10:21:21;;;;;;;7.97;7.18;;;;;;;13.04;100.00;97339.31;10383595;28;20434;-58
2022/04/22 10:26:26;;;;;;;7.25;6.55;;;;;;;13.12;100.00;97346.38;10381906;28;20037;-56
2022/04/22 10:31:29;;;;;;;7.63;6.75;;;;;;;13.24;100.00;97327.69;10385290;28;20056;-57
2022/04/22 10:36:35;;;;;;;7.35;6.70;;;;;;;13.54;100.00;97330.88;10382555;28;20053;-56
2022/04/22 10:41:46;;;;;;;7.22;5.88;;;;;;;13.61;100.00;97316.50;10383851;28;20060;-54
2022/04/22 10:52:15;;;;;;;6.65;6.05;;;;;;;13.80;100.00;97315.69;10383474;28;19974;-56
2022/04/22 10:57:23;;;;;;;6.13;5.60;;;;;;;13.85;100.00;97313.16;10381603;28;20066;-57
2022/04/22 11:02:30;;;;;;;6.28;5.78;;;;;;;14.01;100.00;97300.25;10384872;28;20055;-59
2022/04/22 11:07:55;;;;;;;6.35;5.78;;;;;;;13.89;100.00;97308.16;10380222;28;21290;-57
2022/04/22 11:13:01;;;;;;;5.95;5.40;;;;;;;13.93;100.00;97303.19;10380103;28;20510;-55
2022/04/22 11:18:05;;;;;;;6.95;6.00;;;;;;;13.97;100.00;97302.56;10380278;28;20505;-57
2022/04/22 11:23:14;;;;;;;5.28;4.78;;;;;;;14.19;100.00;97286.03;10379929;28;20143;-56
2022/04/22 11:28:20;;;;;;;5.13;4.72;;;;;;;14.58;100.00;97288.81;10380555;28;20056;-56
2022/04/22 11:33:26;;;;;;;5.57;4.80;;;;;;;14.99;100.00;97287.63;10378035;28;20180;-56
2022/04/22 11:38:31;;;;;;;5.68;5.00;;;;;;;14.87;100.00;97289.34;10380975;28;20048;-54
2022/04/22 11:43:36;;;;;;;6.03;5.43;;;;;;;14.77;100.00;97293.34;10381062;28;20049;-59
2022/04/22 11:48:48;;;;;;;6.00;5.40;;;;;;;14.64;100.00;97304.25;10383833;28;20691;-56
2022/04/22 11:53:56;;;;;;;5.18;4.68;;;;;;;14.65;100.00;97292.31;10385905;28;20859;-53
2022/04/22 11:59:01;;;;;;;7.85;4.75;;;;;;;14.56;100.00;97293.63;10390768;28;20046;-58
2022/04/22 12:09:40;;;;;;;5.53;4.38;;;;;;;14.54;100.00;97293.00;10317352;28;20119;-58
2022/04/22 12:14:44;;;;;;;4.97;4.13;;;;;;;14.54;100.00;97284.88;10387811;28;20733;-56
2022/04/22 12:19:49;;;;;;;5.70;4.18;;;;;;;14.42;100.00;97280.13;10386851;28;20434;-53
2022/04/22 12:25:09;;;;;;;4.50;3.90;;;;;;;14.55;100.00;97291.94;10385749;28;20063;-55
2022/04/22 12:30:14;;;;;;;4.38;3.75;;;;;;;14.57;100.00;97282.59;10382924;28;20075;-56
2022/04/22 12:35:19;;;;;;;4.45;4.13;;;;;;;14.66;100.00;97274.19;10384486;28;20053;-56
2022/04/22 12:40:27;;;;;;;4.47;4.07;;;;;;;14.64;100.00;97258.97;10382335;28;20832;-59
2022/04/22 12:56:14;;;;;;;3.45;3.15;;;;;;;14.39;100.00;97275.16;10384620;28;20045;-55
2022/04/22 13:01:20;;;;;;;3.75;3.10;;;;;;;14.28;100.00;97275.81;10389472;28;20250;-57
2022/04/22 13:06:36;;;;;;;3.60;3.30;;;;;;;14.10;100.00;97274.59;10387863;28;20057;-58
2022/04/22 13:11:42;;;;;;;3.47;3.17;;;;;;;13.91;100.00;97278.19;10389251;28;20049;-58
2022/04/22 13:16:45;;;;;;;6.18;3.40;;;;;;;13.75;100.00;97274.88;10375649;28;20138;-56
2022/04/22 13:21:48;;;;;;;5.35;3.00;;;;;;;13.68;100.00;97282.19;10375041;28;20057;-54
2022/04/22 13:26:54;;;;;;;4.47;3.28;;;;;;;13.52;100.00;97270.72;10373044;28;20148;-59
2022/04/22 13:31:57;;;;;;;4.65;3.30;;;;;;;13.37;100.00;97270.06;10360531;28;20251;-56
2022/04/22 13:37:00;;;;;;;5.07;3.83;;;;;;;13.34;100.00;97284.03;10344459;28;21309;-61
2022/04/22 13:42:05;;;;;;;6.50;4.03;;;;;;;13.21;100.00;97285.69;10381720;28;20049;-54
2022/04/22 13:52:29;;;;;;;5.32;4.82;;;;;;;12.60;100.00;97322.53;10380419;28;20137;-58
2022/04/22 13:57:34;;;;;;;5.70;5.20;;;;;;;12.50;100.00;97340.97;10383225;28;20049;-60
2022/04/22 14:02:37;;;;;;;5.82;5.20;;;;;;;12.33;100.00;97341.28;10382126;28;20525;-54
2022/04/22 14:07:40;;;;;;;6.28;5.47;;;;;;;12.07;100.00;97349.22;10384319;28;20124;-58
2022/04/22 14:12:48;;;;;;;6.32;5.70;;;;;;;11.88;100.00;97348.88;10388078;28;20525;-55
2022/04/22 14:17:52;;;;;;;7.05;6.35;;;;;;;11.59;100.00;97348.00;10384959;28;20485;-59
2022/04/22 14:22:55;;;;;;;7.30;6.60;;;;;;;11.40;100.00;97354.91;10384376;28;20144;-56
2022/04/22 14:27:59;;;;;;;5.32;4.82;;;;;;;11.23;100.00;97330.06;10383410;28;20494;-56
2022/04/22 14:33:02;;;;;;;5.47;4.40;;;;;;;11.08;100.00;97344.41;10381175;28;20053;-57
2022/04/22 14:38:05;;;;;;;5.32;4.80;;;;;;;10.99;100.00;97340.19;10381301;28;20049;-57
2022/04/22 14:43:10;;;;;;;4.20;3.80;;;;;;;10.90;100.00;97346.69;10382805;28;20059;-58
2022/04/22 14:48:13;;;;;;;3.67;3.38;;;;;;;10.80;100.00;97333.53;10383785;28;20503;-61
2022/04/22 14:53:18;;;;;;;4.10;3.70;;;;;;;10.72;100.00;97347.94;10384603;28;20045;-58
2022/04/22 14:58:22;;;;;;;5.18;4.60;;;;;;;10.63;100.00;97349.09;10368473;28;20585;-56
2022/04/22 15:03:26;;;;;;;4.97;4.50;;;;;;;10.57;100.00;97358.75;10385521;28;20068;-57
2022/04/22 15:08:29;;;;;;;5.65;5.15;;;;;;;10.53;100.00;97357.44;10381739;28;20136;-56
2022/04/22 15:13:34;;;;;;;6.53;5.93;;;;;;;10.53;100.00;97359.28;10385042;28;20045;-57
2022/04/22 15:24:15;;;;;;;7.28;6.57;;;;;;;10.53;100.00;97375.44;10381688;28;20046;-57
2022/04/22 15:29:20;;;;;;;7.40;6.68;;;;;;;10.54;100.00;97375.28;10383114;28;20045;-61
2022/04/22 15:34:23;;;;;;;7.78;6.97;;;;;;;10.56;100.00;97385.84;10383924;28;20052;-61
2022/04/22 15:39:26;;;;;;;8.85;7.60;;;;;;;10.54;100.00;97379.81;10381962;28;20152;-61
2022/04/22 15:44:32;;;;;;;8.77;7.85;;;;;;;10.52;100.00;97374.63;10383199;28;20045;-61
2022/04/22 15:49:36;;;;;;;8.82;7.90;;;;;;;10.50;100.00;97379.34;10385122;28;20092;-60
2022/04/22 15:54:40;;;;;;;8.57;7.78;;;;;;;10.53;100.00;97380.84;10388381;28;20088;-61
2022/04/22 15:59:44;;;;;;;8.98;8.07;;;;;;;10.53;100.00;97376.31;10389643;28;20039;-54
2022/04/22 16:04:47;;;;;;;8.60;7.80;;;;;;;10.54;100.00;97371.75;10389387;28;20127;-61
2022/04/22 16:09:51;;;;;;;9.13;8.23;;;;;;;10.53;100.00;97368.22;10387768;28;20061;-60
2022/04/22 16:20:31;;;;;;;8.90;8.00;;;;;;;10.57;100.00;97371.38;10268924;28;20082;-60
2022/04/22 16:25:34;;;;;;;8.90;8.10;;;;;;;10.58;100.00;97389.19;10360367;28;20064;-62
2022/04/22 16:30:41;;;;;;;9.35;8.45;;;;;;;10.57;100.00;97387.53;10386676;28;20050;-60
2022/04/22 16:35:44;;;;;;;9.93;8.93;;;;;;;10.57;100.00;97403.69;10386900;28;20084;-58
2022/04/22 16:40:48;;;;;;;9.88;8.65;;;;;;;10.52;100.00;97398.88;10389859;28;20060;-60
2022/04/22 16:45:52;;;;;;;10.85;9.63;;;;;;;10.49;100.00;97410.00;10384159;28;20057;-59
2022/04/22 16:50:57;;;;;;;11.18;10.07;;;;;;;10.44;100.00;97407.03;10387822;28;20053;-63
2022/04/22 16:56:01;;;;;;;10.98;9.98;;;;;;;10.40;100.00;97411.13;10391594;28;20041;-59
2022/04/22 17:01:06;;;;;;;10.60;9.50;;;;;;;10.39;100.00;97414.84;10366219;28;20518;-59
2022/04/22 17:06:09;;;;;;;11.07;9.98;;;;;;;10.39;100.00;97415.69;10384792;28;20497;-57
2022/04/22 17:11:13;;;;;;;13.15;10.77;;;;;;;10.39;100.00;97425.59;10387828;28;20045;-60
2022/04/22 17:27:08;;;;;;;12.52;11.23;;;;;;;10.39;100.00;97429.13;10385524;28;20103;-58
2022/04/22 17:32:16;;;;;;;12.10;10.82;;;;;;;10.36;100.00;97436.69;10387944;28;20045;-58
2022/04/22 17:37:19;;;;;;;12.00;10.80;;;;;;;10.35;100.00;97449.34;10385020;28;20053;-60
2022/04/22 17:42:22;;;;;;;11.02;9.93;;;;;;;10.38;100.00;97448.16;10386423;28;20049;-60
2022/04/22 17:47:27;;;;;;;11.10;9.90;;;;;;;10.39;100.00;97457.91;10368011;28;20052;-59
2022/04/22 17:52:30;;;;;;;10.95;9.90;;;;;;;10.30;100.00;97457.13;10386044;28;20053;-60
2022/04/22 17:57:35;;;;;;;10.27;9.38;;;;;;;10.28;100.00;97451.09;10367661;28;20061;-58
2022/04/22 18:02:40;;;;;;;10.10;9.20;;;;;;;10.28;100.00;97459.19;10383189;28;20049;-60
2022/04/22 18:07:43;;;;;;;10.75;9.75;;;;;;;10.25;100.00;97456.84;10368376;28;20140;-60
2022/04/22 18:12:46;;;;;;;10.77;9.68;;;;;;;10.20;100.00;97460.09;10385424;28;20049;-59
2022/04/22 18:17:51;;;;;;;11.02;10.00;;;;;;;10.12;100.00;97458.31;10384210;28;20049;-57
2022/04/22 18:22:57;;;;;;;11.27;10.18;;;;;;;10.09;100.00;97458.66;10380909;28;20037;-55
2022/04/22 18:28:01;;;;;;;12.27;11.07;;;;;;;10.07;100.00;97479.53;10386093;28;20128;-59
2022/04/22 18:33:06;;;;;;;12.93;11.45;;;;;;;10.02;100.00;97479.25;10385431;28;20053;-58
2022/04/22 18:38:09;;;;;;;13.20;11.85;;;;;;;9.98;100.00;97477.94;10383994;28;20517;-60
2022/04/22 18:43:12;;;;;;;13.48;12.13;;;;;;;9.94;100.00;97474.78;10379387;28;20045;-60
2022/04/22 18:48:18;;;;;;;14.55;13.05;;;;;;;9.94;100.00;97479.28;10382795;28;20060;-60
2022/04/22 18:53:23;;;;;;;15.40;13.05;;;;;;;9.91;100.00;97477.81;10381126;28;20054;-60
2022/04/22 18:58:27;;;;;;;14.85;13.35;;;;;;;9.91;100.00;97477.81;10386272;28;20053;-58
2022/04/22 19:03:32;;;;;;;15.30;13.63;;;;;;;9.92;100.00;97484.03;10392430;28;20065;-57
2022/04/22 19:08:35;;;;;;;14.82;13.43;;;;;;;9.91;100.00;97485.06;10390373;28;20044;-60
2022/04/22 19:13:40;;;;;;;15.48;13.88;;;;;;;9.90;100.00;97496.84;10393493;28;20183;-58
2022/04/22 19:18:45;;;;;;;16.30;14.60;;;;;;;9.91;100.00;97491.25;10390604;28;20133;-57
2022/04/22 19:23:49;;;;;;;17.70;15.15;;;;;;;9.92;100.00;97486.75;10389056;28;20050;-54
2022/04/22 19:28:53;;;;;;;16.95;15.25;;;;;;;9.90;100.00;97480.69;10390607;28;20045;-59
2022/04/22 19:33:57;;;;;;;18.15;16.25;;;;;;;9.87;100.00;97485.41;10389198;28;20057;-57
2022/04/22 19:44:20;;;;;;;16.80;15.10;;;;;;;9.84;100.00;97480.38;10392109;28;20442;-59
2022/04/22 19:49:25;;;;;;;15.52;13.93;;;;;;;9.83;100.00;97472.50;10391968;28;20141;-57
2022/04/22 19:54:30;;;;;;;16.17;14.48;;;;;;;9.85;100.00;97481.25;10387883;28;20978;-57
2022/04/22 19:59:33;;;;;;;16.35;14.65;;;;;;;9.84;100.00;97482.25;10389070;28;20108;-56
2022/04/22 20:04:38;;;;;;;17.52;15.73;;;;;;;9.82;100.00;97476.22;10392464;28;20049;-57
2022/04/22 20:09:43;;;;;;;17.30;15.50;;;;;;;9.84;100.00;97485.75;10390881;28;20037;-56
2022/04/22 20:14:47;;;;;;;17.83;15.93;;;;;;;9.85;100.00;97486.63;10383912;28;20057;-56
2022/04/22 20:19:54;;;;;;;18.30;16.50;;;;;;;9.85;100.00;97492.00;10390721;28;20048;-55
2022/04/22 20:24:58;;;;;;;19.08;17.02;;;;;;;9.84;100.00;97488.44;10390038;28;20060;-57
2022/04/22 20:30:03;;;;;;;18.67;16.67;;;;;;;9.84;100.00;97491.16;10376263;28;20073;-58
2022/04/22 20:40:36;;;;;;;18.63;16.73;;;;;;;9.87;100.00;97500.72;10392444;28;20052;-57
2022/04/22 20:45:47;;;;;;;17.52;15.73;;;;;;;9.88;100.00;97494.31;10388658;28;20533;-56
2022/04/22 20:50:53;;;;;;;16.15;14.55;;;;;;;9.89;100.00;97497.84;10375499;28;20053;-57
2022/04/22 20:55:57;;;;;;;15.35;13.75;;;;;;;9.90;100.00;97494.16;10374594;28;20057;-55
2022/04/22 21:01:04;;;;;;;14.20;12.75;;;;;;;9.90;100.00;97483.38;10371667;28;20104;-61
2022/04/22 21:06:09;;;;;;;14.48;12.95;;;;;;;9.91;100.00;97490.44;10386002;28;20084;-56
2022/04/22 21:11:12;;;;;;;14.05;12.65;;;;;;;9.89;100.00;97493.28;10386625;28;20049;-57
2022/04/22 21:16:15;;;;;;;15.45;13.63;;;;;;;9.86;100.00;97494.50;10373076;28;20053;-54
2022/04/22 21:21:21;;;;;;;12.98;11.70;;;;;;;9.84;100.00;97496.53;10385499;28;21282;-57
2022/04/22 21:26:24;;;;;;;12.02;10.90;;;;;;;9.81;100.00;97496.91;10386300;28;20168;-58
2022/04/22 21:31:27;;;;;;;10.70;9.65;;;;;;;9.76;100.00;97499.28;10384018;28;20051;-58
2022/04/22 21:36:32;;;;;;;10.18;9.25;;;;;;;9.73;100.00;97504.19;10385767;28;20053;-57
2022/04/22 21:41:35;;;;;;;9.45;8.55;;;;;;;9.69;100.00;97506.41;10390180;28;20136;-56
2022/04/22 21:46:38;;;;;;;9.50;8.60;;;;;;;9.64;100.00;97519.53;10386511;28;20057;-60
2022/04/22 21:51:44;;;;;;;9.32;8.43;;;;;;;9.60;100.00;97515.50;10389179;28;20041;-57
2022/04/22 21:56:47;;;;;;;9.50;8.40;;;;;;;9.55;100.00;97527.66;10386538;28;20087;-58
2022/04/22 22:01:55;;;;;;;8.80;8.00;;;;;;;9.51;100.00;97523.63;10390015;28;20129;-59
2022/04/22 22:06:59;;;;;;;8.55;7.75;;;;;;;9.47;100.00;97521.47;10384747;28;20505;-58
2022/04/22 22:12:03;;;;;;;9.75;8.82;;;;;;;9.43;100.00;97521.00;10389456;28;20064;-59
2022/04/22 22:17:06;;;;;;;10.32;9.32;;;;;;;9.38;100.00;97518.00;10374690;28;20049;-56
2022/04/22 22:22:10;;;;;;;10.68;9.73;;;;;;;9.32;100.00;97527.59;10371802;28;20175;-57
2022/04/22 22:27:13;;;;;;;10.38;9.18;;;;;;;9.32;100.00;97526.78;10393334;28;20056;-57
2022/04/22 22:32:16;;;;;;;10.93;9.93;;;;;;;9.27;100.00;97526.44;10384687;28;20041;-61
2022/04/22 22:37:20;;;;;;;11.10;10.10;;;;;;;9.23;100.00;97532.16;10383424;28;20184;-58
2022/04/22 22:42:24;;;;;;;11.07;10.07;;;;;;;9.20;100.00;97537.91;10386410;28;20084;-59
2022/04/22 22:47:28;;;;;;;12.77;11.45;;;;;;;9.15;100.00;97528.69;10384273;28;20057;-59
2022/04/22 22:52:32;;;;;;;12.13;11.02;;;;;;;9.13;100.00;97534.22;10386057;28;20140;-57
2022/04/22 22:57:37;;;;;;;12.43;11.30;;;;;;;9.09;100.00;97541.81;10384560;28;20045;-57
2022/04/22 23:02:40;;;;;;;11.77;10.68;;;;;;;9.06;100.00;97542.13;10377707;28;20077;-55
2022/04/22 23:07:45;;;;;;;12.77;11.60;;;;;;;9.03;100.00;97536.28;10386489;28;20046;-57
2022/04/22 23:12:48;;;;;;;12.40;11.30;;;;;;;9.01;100.00;97531.09;10385674;28;20069;-60
2022/04/22 23:17:55;;;;;;;12.15;11.05;;;;;;;8.98;100.00;97527.91;10382517;28;20422;-59
2022/04/22 23:23:00;;;;;;;13.30;12.05;;;;;;;8.94;100.00;97527.41;10386103;28;20057;-58
2022/04/22 23:28:03;;;;;;;13.68;12.38;;;;;;;8.91;100.00;97530.47;10364811;28;20068;-57
2022/04/22 23:33:06;;;;;;;13.20;12.00;;;;;;;8.85;100.00;97528.44;10386576;28;20045;-57
2022/04/22 23:38:11;;;;;;;13.30;12.10;;;;;;;8.84;100.00;97521.41;10395623;28;20433;-58
2022/04/22 23:43:17;;;;;;;13.48;12.20;;;;;;;8.81;100.00;97516.41;10418578;28;20021;-54
2022/04/22 23:48:20;;;;;;;13.90;12.60;;;;;;;8.76;100.00;97509.69;10464299;28;20064;-58
2022/04/22 23:53:29;;;;;;;13.88;12.60;;;;;;;8.75;100.00;97513.38;10458999;28;20026;-59
2022/04/22 23:58:34;;;;;;;14.68;13.30;;;;;;;8.73;100.00;97509.19;10460914;28;20061;-58
